Time;durP1;ratioP1;P1;durP2;ratioP2;P2;SDS_P1;SDS_P2;PMS_P1;PMS_P2;Temp;Humidity;BMP_temperature;BMP_pressure;BME280_temperature;BME280_humidity;BME280_pressure;Samples;Min_cycle;Max_cycle;Signal;HPM_P1;HPM_P2
2022/05/25 00:00:09;;;;;;;1.80;0.80;;;;;;;14.14;59.81;100097.75;5073543;28;20040;-75
2022/05/25 00:02:36;;;;;;;1.35;0.70;;;;;;;14.08;59.96;100091.97;5074457;28;20131;-75
2022/05/25 00:05:04;;;;;;;1.95;0.85;;;;;;;14.08;60.54;100100.81;5053296;28;20132;-76
2022/05/25 00:07:31;;;;;;;2.33;0.90;;;;;;;14.01;60.91;100102.16;5071574;28;20052;-77
2022/05/25 00:09:58;;;;;;;1.50;0.90;;;;;;;13.93;61.56;100100.00;5074326;28;20069;-76
2022/05/25 00:12:25;;;;;;;2.28;0.93;;;;;;;13.90;62.11;100104.66;5071075;28;20465;-75
2022/05/25 00:14:51;;;;;;;3.03;0.98;;;;;;;13.81;62.24;100105.28;5072813;28;20044;-71
2022/05/25 00:17:18;;;;;;;2.53;1.30;;;;;;;13.66;63.78;100089.34;5069898;28;20045;-75
2022/05/25 00:20:00;;;;;;;2.50;1.60;;;;;;;13.77;64.92;100117.91;5071193;28;20063;-76
2022/05/25 00:22:38;;;;;;;2.58;1.42;;;;;;;13.74;66.03;100120.78;5069336;28;20052;-76
2022/05/25 00:25:07;;;;;;;2.30;1.17;;;;;;;13.68;66.09;100123.84;5069510;28;20048;-73
2022/05/25 00:27:34;;;;;;;2.25;1.30;;;;;;;13.49;66.75;100105.53;5070351;28;20491;-75
2022/05/25 00:30:01;;;;;;;2.30;1.30;;;;;;;13.46;66.37;100121.69;5070420;28;20048;-73
2022/05/25 00:32:28;;;;;;;3.42;0.98;;;;;;;13.34;66.82;100122.47;5071266;28;20047;-74
2022/05/25 00:34:54;;;;;;;2.20;1.08;;;;;;;13.31;66.84;100130.63;5073113;28;20044;-75
2022/05/25 00:37:21;;;;;;;1.10;0.80;;;;;;;13.30;66.43;100129.78;5072347;28;20072;-77
2022/05/25 00:39:48;;;;;;;2.22;0.90;;;;;;;13.28;66.95;100123.69;5075756;28;20043;-75
2022/05/25 00:42:16;;;;;;;2.10;0.80;;;;;;;13.31;66.97;100120.00;5074141;28;20083;-77
2022/05/25 00:44:43;;;;;;;3.42;0.80;;;;;;;13.34;66.84;100120.66;5069631;28;20048;-74
2022/05/25 00:47:14;;;;;;;2.78;1.13;;;;;;;13.25;66.92;100094.63;5052091;28;20040;-77
2022/05/25 00:49:41;;;;;;;1.60;1.00;;;;;;;13.39;66.39;100107.06;5069694;28;20040;-76
2022/05/25 00:52:13;;;;;;;1.38;0.93;;;;;;;13.33;66.09;100094.16;5068120;28;20049;-77
2022/05/25 00:54:45;;;;;;;1.95;1.05;;;;;;;13.36;66.17;100109.94;5066807;28;20056;-74
2022/05/25 00:57:18;;;;;;;2.58;1.00;;;;;;;13.35;66.00;100110.88;5067708;28;20166;-75
2022/05/25 01:00:06;;;;;;;1.20;0.77;;;;;;;13.40;66.24;100116.75;5071886;28;20041;-74
2022/05/25 01:02:36;;;;;;;2.97;1.27;;;;;;;13.39;66.35;100120.34;5070061;28;20063;-72
2022/05/25 01:05:03;;;;;;;2.50;1.10;;;;;;;13.43;66.25;100116.56;5071908;28;20040;-77
2022/05/25 01:07:33;;;;;;;4.43;1.27;;;;;;;13.46;65.93;100118.16;5076539;28;20125;-76
2022/05/25 01:10:18;;;;;;;1.77;0.88;;;;;;;13.48;65.78;100125.09;5069426;28;20052;-76
2022/05/25 01:12:57;;;;;;;4.97;0.80;;;;;;;13.43;66.23;100103.25;5067264;28;20048;-73
2022/05/25 01:15:46;;;;;;;3.65;1.13;;;;;;;13.56;65.75;100127.25;5065175;28;20052;-75
2022/05/25 01:18:25;;;;;;;2.67;1.10;;;;;;;13.40;66.03;100110.56;5066526;28;20045;-75
2022/05/25 01:21:17;;;;;;;3.33;0.90;;;;;;;13.42;66.70;100114.84;5071940;28;20120;-75
2022/05/25 01:24:03;;;;;;;1.50;1.00;;;;;;;13.46;66.24;100126.16;5061034;28;20086;-79
2022/05/25 01:26:51;;;;;;;2.40;1.20;;;;;;;13.36;66.70;100131.22;5056413;28;20071;-73
2022/05/25 01:29:45;;;;;;;3.65;1.00;;;;;;;13.26;66.98;100130.06;5075085;28;20051;-77
2022/05/25 01:32:53;;;;;;;2.28;1.48;;;;;;;13.19;67.33;100142.03;5065792;28;20493;-75
2022/05/25 01:35:44;;;;;;;3.05;1.20;;;;;;;13.10;67.94;100137.22;5067951;28;20094;-74
2022/05/25 01:38:16;;;;;;;1.92;0.90;;;;;;;13.03;68.73;100142.09;5068239;28;20313;-75
2022/05/25 01:41:22;;;;;;;2.13;0.90;;;;;;;12.95;69.00;100139.88;5071221;28;20060;-73
2022/05/25 01:44:01;;;;;;;2.22;1.00;;;;;;;12.91;69.12;100137.50;5064604;28;20484;-78
2022/05/25 01:46:32;;;;;;;1.92;0.75;;;;;;;12.90;69.53;100146.44;5076690;28;20094;-75
2022/05/25 01:49:04;;;;;;;1.42;1.00;;;;;;;12.81;69.81;100125.72;5075342;28;20127;-76
2022/05/25 01:51:42;;;;;;;1.20;0.80;;;;;;;12.87;69.88;100143.97;5069163;28;20429;-76
2022/05/25 01:54:13;;;;;;;0.98;0.70;;;;;;;12.85;70.09;100144.06;5071325;28;20090;-77
2022/05/25 01:56:43;;;;;;;1.45;1.05;;;;;;;12.85;70.37;100144.06;5073515;28;20124;-79
2022/05/25 01:59:13;;;;;;;1.17;1.00;;;;;;;12.85;70.68;100144.06;5069977;28;20044;-76
2022/05/25 02:01:49;;;;;;;1.15;0.90;;;;;;;12.46;70.09;100074.69;5060140;28;20044;-75
2022/05/25 02:04:24;;;;;;;5.85;1.05;;;;;;;12.85;70.53;100140.53;5067751;28;20048;-75
2022/05/25 02:07:06;;;;;;;1.63;1.10;;;;;;;12.86;70.43;100144.91;5064298;28;20124;-76
2022/05/25 02:10:04;;;;;;;1.70;1.00;;;;;;;12.88;70.03;100143.88;5078431;28;20045;-78
2022/05/25 02:12:46;;;;;;;2.60;0.95;;;;;;;12.78;70.04;100133.88;5046287;28;20052;-76
2022/05/25 02:15:41;;;;;;;1.13;0.80;;;;;;;12.87;69.89;100147.47;5071756;28;20060;-74
2022/05/25 02:18:32;;;;;;;3.38;1.20;;;;;;;12.80;70.13;100154.09;5061738;28;20114;-77
2022/05/25 02:21:19;;;;;;;1.05;0.90;;;;;;;12.69;70.53;100145.91;5055580;28;20128;-75
2022/05/25 02:23:58;;;;;;;1.02;0.80;;;;;;;12.62;71.24;100152.53;5063547;28;20056;-74
2022/05/25 02:26:35;;;;;;;1.88;1.00;;;;;;;12.53;72.06;100150.44;5078431;28;20048;-77
2022/05/25 02:29:11;;;;;;;2.92;1.20;;;;;;;12.47;72.32;100150.78;5074082;28;20131;-78
2022/05/25 02:31:46;;;;;;;1.15;0.80;;;;;;;12.35;72.47;100146.19;5062267;28;20370;-75
2022/05/25 02:34:16;;;;;;;3.58;1.02;;;;;;;12.22;73.40;100135.41;5067227;28;20075;-75
2022/05/25 02:36:45;;;;;;;1.98;0.70;;;;;;;12.31;73.45;100158.78;5072168;28;20135;-75
2022/05/25 02:39:12;;;;;;;2.58;1.17;;;;;;;12.30;73.56;100165.88;5073236;28;20071;-73
2022/05/25 02:41:54;;;;;;;3.20;1.30;;;;;;;12.34;73.07;100160.41;5083928;28;20068;-76
2022/05/25 02:44:22;;;;;;;0.80;0.80;;;;;;;12.33;72.84;100164.84;5078594;28;20045;-73
2022/05/25 02:46:49;;;;;;;2.17;0.70;;;;;;;12.34;73.25;100160.41;5084556;28;20059;-76
2022/05/25 02:49:17;;;;;;;1.25;1.00;;;;;;;12.22;72.96;100138.09;5076586;28;20074;-76
2022/05/25 02:51:45;;;;;;;2.30;1.00;;;;;;;12.41;72.53;100162.63;5073524;28;20116;-73
2022/05/25 02:54:12;;;;;;;2.13;1.13;;;;;;;12.45;72.75;100171.25;5078257;28;20056;-73
2022/05/25 02:56:39;;;;;;;2.25;1.08;;;;;;;12.49;72.52;100170.13;5072739;28;20048;-77
2022/05/25 02:59:06;;;;;;;1.98;1.30;;;;;;;12.47;72.52;100162.25;5084536;28;20138;-70
2022/05/25 03:01:32;;;;;;;2.80;1.48;;;;;;;12.51;72.99;100178.88;5076090;28;20045;-75
2022/05/25 03:03:59;;;;;;;1.65;1.20;;;;;;;12.48;73.65;100176.38;5062282;28;20055;-77
2022/05/25 03:06:26;;;;;;;3.22;1.63;;;;;;;12.44;74.28;100178.34;5079702;28;20071;-72
2022/05/25 03:08:53;;;;;;;1.92;1.20;;;;;;;12.38;74.49;100181.38;5078525;28;20108;-76
2022/05/25 03:11:20;;;;;;;3.47;1.40;;;;;;;12.40;74.77;100181.31;5073120;28;20582;-73
2022/05/25 03:13:48;;;;;;;1.70;1.40;;;;;;;12.39;75.10;100190.22;5061570;28;20163;-73
2022/05/25 03:16:18;;;;;;;2.70;1.50;;;;;;;12.53;74.90;100187.59;5084148;28;20056;-73
2022/05/25 03:18:47;;;;;;;2.28;1.13;;;;;;;12.44;74.71;100181.00;5078297;28;20082;-77
2022/05/25 03:21:14;;;;;;;1.85;1.20;;;;;;;12.28;75.22;100178.38;5054478;28;20063;-73
2022/05/25 03:23:40;;;;;;;2.90;1.30;;;;;;;12.20;76.08;100191.25;5058921;28;20071;-78
2022/05/25 03:26:07;;;;;;;3.13;1.30;;;;;;;12.07;76.44;100184.94;5070476;28;20830;-74
2022/05/25 03:28:34;;;;;;;2.75;1.30;;;;;;;11.95;76.78;100177.66;5077266;28;20067;-76
2022/05/25 03:31:01;;;;;;;1.40;1.25;;;;;;;12.00;77.47;100188.00;5076136;28;20759;-76
2022/05/25 03:33:28;;;;;;;2.35;1.58;;;;;;;12.09;77.03;100198.13;5070116;28;20161;-75
2022/05/25 03:35:54;;;;;;;1.83;1.38;;;;;;;12.02;77.38;100196.75;5072256;28;20583;-73
2022/05/25 03:38:21;;;;;;;2.67;1.45;;;;;;;11.97;78.22;100197.00;5070867;28;20501;-72
2022/05/25 03:40:48;;;;;;;1.48;1.15;;;;;;;11.85;78.38;100179.09;5067903;28;20072;-78
2022/05/25 03:43:18;;;;;;;2.97;1.75;;;;;;;11.90;78.90;100192.97;5070542;28;20080;-75
2022/05/25 03:45:46;;;;;;;3.20;2.43;;;;;;;11.73;79.23;100171.81;5057356;28;20084;-77
2022/05/25 03:48:15;;;;;;;2.08;1.50;;;;;;;11.85;79.33;100195.03;5070286;28;20546;-77
2022/05/25 03:50:42;;;;;;;4.65;2.00;;;;;;;11.90;79.45;100203.59;5081931;28;20047;-77
2022/05/25 03:53:12;;;;;;;3.50;1.73;;;;;;;11.93;79.19;100214.03;5071316;28;20051;-77
2022/05/25 03:55:39;;;;;;;2.17;1.80;;;;;;;11.94;78.92;100218.41;5062246;28;20048;-76
2022/05/25 03:58:06;;;;;;;4.05;1.60;;;;;;;11.93;79.22;100217.56;5073560;28;20110;-78
2022/05/25 04:00:33;;;;;;;2.15;1.67;;;;;;;11.90;79.02;100224.81;5075915;28;20048;-77
2022/05/25 04:03:02;;;;;;;2.88;1.35;;;;;;;11.85;79.19;100221.56;5068900;28;20097;-75
2022/05/25 04:05:31;;;;;;;1.60;1.35;;;;;;;11.80;79.64;100223.63;5075884;28;20089;-78
2022/05/25 04:07:58;;;;;;;3.20;1.70;;;;;;;11.70;80.49;100227.66;5077495;28;20040;-77
2022/05/25 04:10:29;;;;;;;5.43;2.13;;;;;;;11.69;80.16;100228.59;5072527;28;20064;-78
2022/05/25 04:12:56;;;;;;;3.78;1.75;;;;;;;11.66;80.72;100236.72;5068547;28;20056;-73
2022/05/25 04:15:26;;;;;;;2.75;1.75;;;;;;;11.69;80.84;100236.56;5071821;28;20144;-76
2022/05/25 04:17:54;;;;;;;6.50;1.70;;;;;;;11.71;80.82;100240.00;5076382;28;20045;-77
2022/05/25 04:20:22;;;;;;;4.25;1.77;;;;;;;11.76;80.71;100244.16;5083839;28;20055;-76
2022/05/25 04:22:50;;;;;;;3.13;1.90;;;;;;;11.64;80.88;100217.41;5070285;28;20055;-74
2022/05/25 04:25:20;;;;;;;4.88;2.00;;;;;;;11.78;81.10;100239.63;5071542;28;20076;-78
2022/05/25 04:27:49;;;;;;;7.20;2.80;;;;;;;11.68;81.02;100221.59;5069379;28;20040;-73
2022/05/25 04:30:19;;;;;;;3.67;1.90;;;;;;;11.76;80.98;100232.69;5068823;28;20454;-75
2022/05/25 04:32:46;;;;;;;4.00;2.10;;;;;;;11.78;81.27;100252.03;5071659;28;20053;-77
2022/05/25 04:35:15;;;;;;;4.68;2.10;;;;;;;11.76;81.51;100252.13;5070721;28;20052;-78
2022/05/25 04:37:54;;;;;;;3.63;2.17;;;;;;;11.76;80.66;100253.91;5071988;28;20166;-75
2022/05/25 04:40:30;;;;;;;4.18;1.98;;;;;;;11.75;81.41;100247.72;5072843;28;20491;-78
2022/05/25 04:42:59;;;;;;;8.10;2.60;;;;;;;11.90;81.85;100256.66;5070693;28;21237;-78
2022/05/25 04:45:27;;;;;;;3.45;2.20;;;;;;;11.98;80.69;100259.75;5069994;28;20102;-78
2022/05/25 04:47:56;;;;;;;13.40;2.20;;;;;;;12.02;80.59;100261.28;5062193;28;20056;-77
2022/05/25 04:50:25;;;;;;;6.80;2.30;;;;;;;12.01;80.49;100264.88;5065277;28;20045;-74
2022/05/25 04:52:53;;;;;;;5.68;2.50;;;;;;;12.01;80.83;100267.53;5076164;28;20166;-75
2022/05/25 04:58:33;;;;;;;4.35;2.70;;;;;;;11.98;80.08;100269.50;5070506;28;20072;-76
2022/05/25 05:01:01;;;;;;;6.45;2.30;;;;;;;11.97;80.20;100273.09;5070037;28;20059;-76
2022/05/25 05:03:30;;;;;;;6.05;2.45;;;;;;;11.98;79.33;100272.16;5070100;28;20049;-74
2022/05/25 05:05:58;;;;;;;4.43;2.30;;;;;;;12.00;79.61;100284.41;5072559;28;20044;-73
2022/05/25 05:08:26;;;;;;;9.90;2.88;;;;;;;12.05;79.16;100285.03;5068358;28;20519;-74
2022/05/25 05:10:53;;;;;;;6.50;2.50;;;;;;;12.15;79.58;100291.53;5053107;28;20048;-76
2022/05/25 05:13:20;;;;;;;4.80;2.25;;;;;;;12.23;79.16;100294.63;5057703;28;20492;-72
2022/05/25 05:15:52;;;;;;;5.32;2.33;;;;;;;12.35;78.68;100301.03;5064615;28;20062;-73
2022/05/25 05:18:20;;;;;;;3.13;2.40;;;;;;;12.40;78.23;100282.22;5067095;28;20051;-75
2022/05/25 05:20:47;;;;;;;7.57;2.72;;;;;;;12.54;78.11;100300.88;5066227;28;20113;-73
2022/05/25 05:23:14;;;;;;;4.22;2.50;;;;;;;12.63;76.92;100295.03;5064675;28;20049;-73
2022/05/25 05:25:41;;;;;;;3.92;2.20;;;;;;;12.64;76.62;100280.81;5067617;28;20043;-75
2022/05/25 05:28:15;;;;;;;5.03;2.42;;;;;;;12.90;75.56;100298.78;5068663;28;20086;-72
2022/05/25 05:30:51;;;;;;;4.53;2.67;;;;;;;13.02;74.47;100299.00;5061726;28;20721;-78
2022/05/25 05:33:23;;;;;;;3.83;2.70;;;;;;;12.96;74.40;100294.88;5069596;28;20432;-77
2022/05/25 05:35:53;;;;;;;;;;;;;;;13.06;75.08;100297.88;5065262;28;20068;-71
2022/05/25 05:38:22;;;;;;;12.10;4.72;;;;;;;13.13;74.71;100304.53;5063419;28;19920;-77
2022/05/25 05:40:48;;;;;;;5.82;2.50;;;;;;;13.18;74.18;100313.13;5070977;28;20482;-73
2022/05/25 05:43:15;;;;;;;3.38;2.28;;;;;;;13.18;74.14;100307.81;5065670;28;20045;-73
2022/05/25 05:45:44;;;;;;;7.00;2.40;;;;;;;13.28;74.02;100324.94;5057883;28;20398;-77
2022/05/25 05:48:11;;;;;;;3.83;2.10;;;;;;;13.33;73.76;100322.88;5069038;28;20044;-75
2022/05/25 05:50:41;;;;;;;4.68;2.10;;;;;;;13.39;73.72;100327.81;5071717;28;20052;-78
2022/05/25 05:53:10;;;;;;;3.85;2.00;;;;;;;13.45;73.08;100326.59;5073811;28;20045;-75
2022/05/25 05:55:43;;;;;;;3.72;1.58;;;;;;;13.51;72.65;100329.75;5075446;28;20318;-76
2022/05/25 05:58:10;;;;;;;2.60;1.80;;;;;;;13.69;72.46;100320.63;5079002;28;20117;-74
2022/05/25 06:00:38;;;;;;;4.15;2.10;;;;;;;13.94;71.17;100332.47;5074289;28;20052;-73
2022/05/25 06:03:05;;;;;;;3.72;1.90;;;;;;;13.99;70.15;100325.91;5070782;28;20052;-75
2022/05/25 06:05:33;;;;;;;4.65;1.77;;;;;;;14.22;70.47;100340.44;5061598;28;20060;-73
2022/05/25 06:08:14;;;;;;;6.07;2.15;;;;;;;14.39;68.89;100336.69;5072014;28;20462;-78
2022/05/25 06:10:41;;;;;;;1.83;1.67;;;;;;;14.44;68.64;100328.47;5068564;28;20048;-77
2022/05/25 06:13:08;;;;;;;3.70;1.83;;;;;;;14.64;69.03;100326.19;5073736;28;20149;-74
2022/05/25 06:21:09;;;;;;;3.80;1.42;;;;;;;15.88;64.08;100352.59;5061702;28;20736;-76
2022/05/25 06:23:36;;;;;;;3.75;1.67;;;;;;;16.01;62.65;100346.28;5072357;28;20096;-75
2022/05/25 06:26:04;;;;;;;4.40;1.60;;;;;;;16.12;62.15;100362.41;5071333;28;20056;-73
2022/05/25 06:28:31;;;;;;;8.95;4.80;;;;;;;16.13;62.87;100364.13;5067570;28;20154;-77
2022/05/25 06:30:58;;;;;;;7.75;2.25;;;;;;;16.34;61.65;100361.75;5070634;28;20049;-71
2022/05/25 06:33:25;;;;;;;2.55;2.00;;;;;;;16.57;61.86;100361.91;5065358;28;20045;-72
2022/05/25 06:35:52;;;;;;;3.13;1.85;;;;;;;16.59;60.88;100363.50;5066238;28;20049;-75
2022/05/25 06:38:18;;;;;;;2.90;1.90;;;;;;;16.87;59.94;100364.19;5074657;28;20475;-77
2022/05/25 06:40:45;;;;;;;2.55;1.75;;;;;;;17.24;59.41;100373.03;5071527;28;20067;-78
2022/05/25 06:43:12;;;;;;;2.40;1.45;;;;;;;17.40;59.86;100376.25;5069226;28;20098;-77
2022/05/25 06:45:39;;;;;;;6.50;2.47;;;;;;;17.93;57.69;100372.19;5068492;28;20041;-80
2022/05/25 06:48:07;;;;;;;3.50;1.63;;;;;;;18.58;53.29;100366.09;5067153;28;20080;-79
2022/05/25 06:50:34;;;;;;;3.53;1.38;;;;;;;19.10;51.55;100369.91;5065625;28;20045;-78
2022/05/25 06:53:01;;;;;;;2.65;1.95;;;;;;;19.51;51.07;100380.78;5068457;28;20139;-79
2022/05/25 06:55:28;;;;;;;6.63;1.95;;;;;;;19.87;50.32;100386.69;5070334;28;20064;-79
2022/05/25 06:57:54;;;;;;;6.07;1.92;;;;;;;20.09;48.45;100386.53;5066436;28;20527;-78
2022/05/25 07:00:21;;;;;;;4.55;1.52;;;;;;;20.16;48.69;100376.09;5067259;28;20553;-78
2022/05/25 07:02:48;;;;;;;2.92;1.40;;;;;;;20.14;48.79;100381.63;5063187;28;20064;-77
2022/05/25 07:05:15;;;;;;;3.17;1.42;;;;;;;19.62;50.96;100382.56;5058372;28;20045;-74
2022/05/25 07:07:42;;;;;;;2.47;1.45;;;;;;;19.48;50.88;100391.75;5060320;28;20057;-81
2022/05/25 07:10:09;;;;;;;3.25;1.25;;;;;;;19.63;49.72;100381.59;5069566;28;20052;-74
2022/05/25 07:12:36;;;;;;;4.22;1.65;;;;;;;19.33;51.20;100393.03;5062108;28;20048;-73
2022/05/25 07:15:03;;;;;;;7.13;1.50;;;;;;;19.00;49.14;100391.31;5064975;28;20056;-76
2022/05/25 07:17:33;;;;;;;2.60;0.95;;;;;;;18.73;50.34;100390.88;5065285;28;20427;-74
2022/05/25 07:19:59;;;;;;;3.33;1.30;;;;;;;18.67;50.74;100391.38;5065467;28;20056;-77
2022/05/25 07:22:26;;;;;;;2.92;1.20;;;;;;;18.57;51.93;100399.28;5058405;28;20054;-75
2022/05/25 07:24:53;;;;;;;1.92;1.13;;;;;;;18.67;51.97;100404.78;5064209;28;20037;-74
2022/05/25 07:27:19;;;;;;;2.83;1.23;;;;;;;19.14;49.63;100393.72;5065028;28;20178;-78
2022/05/25 07:29:46;;;;;;;2.95;1.10;;;;;;;18.95;49.63;100388.13;5066079;28;20135;-74
2022/05/25 07:32:15;;;;;;;2.35;1.00;;;;;;;18.81;49.36;100389.28;5061990;28;20056;-74
2022/05/25 07:34:46;;;;;;;5.68;1.27;;;;;;;18.81;51.14;100389.28;5061952;28;20040;-75
2022/05/25 07:37:19;;;;;;;3.28;1.20;;;;;;;19.31;49.09;100383.41;5067824;28;20033;-77
2022/05/25 07:40:18;;;;;;;3.63;1.00;;;;;;;20.29;46.15;100392.88;5075841;28;20082;-76
2022/05/25 07:42:50;;;;;;;4.40;1.25;;;;;;;20.51;45.60;100390.03;5070467;28;20048;-79
2022/05/25 07:45:17;;;;;;;1.73;1.13;;;;;;;19.42;47.24;100391.41;5054402;28;20648;-79
2022/05/25 07:47:44;;;;;;;4.40;1.23;;;;;;;19.02;49.39;100381.31;5070481;28;20048;-75
2022/05/25 07:50:10;;;;;;;4.05;1.00;;;;;;;18.69;49.68;100392.09;5066455;28;20045;-78
2022/05/25 07:52:40;;;;;;;1.52;0.82;;;;;;;18.39;49.42;100408.78;5068812;28;20057;-76
2022/05/25 07:55:08;;;;;;;3.13;1.10;;;;;;;18.44;50.65;100410.09;5069418;28;20058;-75
2022/05/25 07:57:35;;;;;;;0.93;0.80;;;;;;;18.61;49.07;100394.53;5066420;28;20076;-75
2022/05/25 08:00:04;;;;;;;1.25;0.70;;;;;;;19.03;48.55;100401.81;5069466;28;20102;-80
2022/05/25 08:08:24;;;;;;;1.20;0.70;;;;;;;19.17;48.14;100400.66;5065063;28;20051;-76
2022/05/25 08:11:06;;;;;;;2.10;0.93;;;;;;;19.48;46.64;100409.69;5071191;28;20040;-73
2022/05/25 08:13:35;;;;;;;3.72;1.10;;;;;;;19.23;47.11;100403.66;5059244;28;20049;-74
2022/05/25 08:16:08;;;;;;;1.60;0.73;;;;;;;19.49;47.37;100403.34;5065576;28;20048;-75
2022/05/25 08:18:36;;;;;;;3.10;1.17;;;;;;;19.64;47.10;100426.28;5058339;28;20060;-73
2022/05/25 08:21:03;;;;;;;1.98;0.80;;;;;;;19.26;48.09;100419.53;5063865;28;20056;-73
2022/05/25 08:23:30;;;;;;;2.80;1.10;;;;;;;19.20;48.88;100420.03;5067090;28;20043;-75
2022/05/25 08:25:57;;;;;;;10.75;1.23;;;;;;;19.04;48.02;100421.44;5067046;28;20094;-74
2022/05/25 08:28:24;;;;;;;2.53;0.80;;;;;;;19.12;48.22;100416.28;5058088;28;20460;-75
2022/05/25 08:30:51;;;;;;;1.75;0.98;;;;;;;18.48;48.58;100408.03;5057311;28;20148;-72
2022/05/25 08:33:20;;;;;;;3.63;1.20;;;;;;;18.32;50.03;100421.81;5065293;28;21462;-75
2022/05/25 08:35:48;;;;;;;1.95;1.00;;;;;;;18.62;48.76;100428.41;5067441;28;20151;-72
2022/05/25 08:38:15;;;;;;;1.33;1.00;;;;;;;18.52;48.43;100417.56;5068148;28;20052;-74
2022/05/25 08:40:45;;;;;;;4.15;0.90;;;;;;;18.58;49.12;100415.25;5060668;28;20072;-70
2022/05/25 08:43:23;;;;;;;2.65;0.85;;;;;;;18.81;48.40;100410.72;5064785;28;20041;-71
2022/05/25 08:46:00;;;;;;;3.85;0.98;;;;;;;19.01;47.75;100406.44;5061173;28;20070;-71
2022/05/25 08:48:28;;;;;;;2.72;0.90;;;;;;;19.15;47.55;100416.03;5066741;28;20048;-72
2022/05/25 08:51:01;;;;;;;1.17;0.70;;;;;;;19.72;44.76;100404.13;5064794;28;20055;-71
2022/05/25 08:53:33;;;;;;;2.13;0.80;;;;;;;20.32;42.97;100403.34;5065327;28;20430;-76
2022/05/25 08:56:15;;;;;;;2.13;0.87;;;;;;;20.93;41.84;100406.91;5062552;28;20068;-73
2022/05/25 08:59:08;;;;;;;3.17;0.95;;;;;;;20.78;42.88;100399.34;5058321;28;20091;-74
2022/05/25 09:01:43;;;;;;;1.77;0.80;;;;;;;20.13;44.13;100404.13;5056572;28;20051;-74
2022/05/25 09:04:39;;;;;;;1.98;0.80;;;;;;;20.13;44.58;100403.28;5055505;28;20044;-74
2022/05/25 09:07:34;;;;;;;1.85;0.80;;;;;;;20.15;44.08;100387.84;5026734;28;20052;-70
2022/05/25 09:10:01;;;;;;;2.38;0.60;;;;;;;20.62;42.23;100400.69;5062183;28;20408;-73
2022/05/25 09:12:30;;;;;;;2.63;0.70;;;;;;;20.90;42.36;100393.72;5059219;28;20420;-73
2022/05/25 09:15:16;;;;;;;2.80;0.80;;;;;;;20.87;40.93;100409.28;5067810;28;20463;-75
2022/05/25 09:17:58;;;;;;;3.03;0.80;;;;;;;20.49;41.60;100407.28;5065866;28;20058;-74
2022/05/25 09:20:31;;;;;;;2.17;0.70;;;;;;;20.09;42.39;100383.84;5065724;28;20043;-74
2022/05/25 09:22:59;;;;;;;2.70;0.80;;;;;;;19.84;43.51;100413.81;5041522;28;20133;-77
2022/05/25 09:25:26;;;;;;;1.27;0.57;;;;;;;19.68;43.62;100413.41;5057728;28;20059;-74
2022/05/25 09:28:00;;;;;;;1.67;0.60;;;;;;;19.81;43.98;100414.94;5066731;28;20094;-74
2022/05/25 09:30:28;;;;;;;2.75;0.50;;;;;;;19.82;43.41;100418.50;5058763;28;20048;-73
2022/05/25 09:33:01;;;;;;;2.13;0.60;;;;;;;19.84;42.44;100409.28;5064068;28;20106;-75
2022/05/25 09:35:38;;;;;;;3.88;0.75;;;;;;;20.00;42.08;100413.34;5065074;28;20504;-82
2022/05/25 09:38:16;;;;;;;1.15;0.45;;;;;;;19.89;42.30;100417.81;5066034;28;20056;-76
2022/05/25 09:40:51;;;;;;;2.03;0.47;;;;;;;20.06;42.15;100419.06;5067704;28;20063;-76
2022/05/25 09:43:23;;;;;;;1.42;0.50;;;;;;;20.39;41.76;100418.00;5063997;28;20129;-76
2022/05/25 09:45:56;;;;;;;1.30;0.40;;;;;;;20.38;39.73;100426.22;5067602;28;20049;-76
2022/05/25 09:48:26;;;;;;;2.22;0.50;;;;;;;20.50;40.46;100428.66;5060701;28;20045;-78
2022/05/25 09:51:00;;;;;;;3.00;0.85;;;;;;;20.48;40.31;100414.50;5066331;28;20048;-80
2022/05/25 09:53:41;;;;;;;1.90;0.60;;;;;;;20.34;40.04;100417.53;5067342;28;22044;-77
2022/05/25 09:56:21;;;;;;;2.10;0.40;;;;;;;20.38;39.95;100407.38;5064702;28;20136;-82
2022/05/25 09:58:52;;;;;;;0.85;0.43;;;;;;;20.38;39.06;100404.69;5068891;28;20060;-81
2022/05/25 10:01:30;;;;;;;1.80;0.47;;;;;;;20.39;38.59;100393.81;5072173;28;20148;-77
2022/05/25 10:03:59;;;;;;;1.60;0.40;;;;;;;20.37;38.44;100406.53;5049330;28;20083;-78
2022/05/25 10:06:35;;;;;;;1.23;0.57;;;;;;;20.30;39.41;100408.84;5069523;28;20045;-80
2022/05/25 10:09:21;;;;;;;1.45;0.60;;;;;;;20.31;38.54;100407.88;5068922;28;20047;-77
2022/05/25 10:12:10;;;;;;;2.28;1.00;;;;;;;20.53;37.94;100414.97;5073030;28;20499;-79
2022/05/25 10:14:39;;;;;;;2.63;0.70;;;;;;;20.41;37.82;100413.34;5069548;28;20059;-78
2022/05/25 10:17:15;;;;;;;3.85;0.90;;;;;;;20.38;37.70;100405.56;5065074;28;20045;-76
2022/05/25 10:19:50;;;;;;;3.20;0.80;;;;;;;20.31;38.25;100409.72;5069349;28;20131;-77
2022/05/25 10:22:26;;;;;;;3.15;0.82;;;;;;;20.67;38.06;100406.50;5062744;28;20133;-78
2022/05/25 10:25:20;;;;;;;1.85;0.60;;;;;;;20.62;37.51;100375.63;5064043;28;20041;-77
2022/05/25 10:27:48;;;;;;;3.95;0.73;;;;;;;20.88;36.41;100398.38;5067311;28;20113;-78
2022/05/25 10:36:47;;;;;;;2.05;0.63;;;;;;;21.11;36.73;100390.03;5071408;28;20044;-76
2022/05/25 10:39:37;;;;;;;6.80;5.57;;;;;;;21.11;35.46;100376.56;5063221;28;20098;-79
2022/05/25 10:42:22;;;;;;;;;;;;;;;20.79;37.01;100398.31;5066263;28;20140;-77
2022/05/25 10:45:21;;;;;;;2.88;0.55;;;;;;;20.78;37.06;100377.81;5068037;28;19925;-77
2022/05/25 10:47:54;;;;;;;1.38;0.50;;;;;;;20.96;37.65;100384.22;5052266;28;20075;-78
2022/05/25 10:50:51;;;;;;;1.98;0.52;;;;;;;21.15;36.70;100389.63;5068087;28;20072;-76
2022/05/25 10:56:52;;;;;;;1.70;0.55;;;;;;;21.28;36.07;100384.00;5065923;28;20053;-74
2022/05/25 10:59:56;;;;;;;3.97;0.98;;;;;;;21.49;35.84;100373.94;5068882;28;20052;-73
2022/05/25 11:02:51;;;;;;;7.65;4.40;;;;;;;21.84;35.18;100385.97;5060085;28;20063;-72
2022/05/25 11:05:28;;;;;;;3.17;1.25;;;;;;;21.88;35.02;100369.34;5065477;28;20071;-74
2022/05/25 11:08:09;;;;;;;4.03;1.33;;;;;;;21.61;36.52;100394.34;5064287;28;20059;-73
2022/05/25 11:10:43;;;;;;;3.25;0.50;;;;;;;21.20;36.93;100373.94;5061470;28;20063;-73
2022/05/25 11:13:32;;;;;;;18.02;1.80;;;;;;;20.89;38.19;100396.53;5062401;28;20078;-72
2022/05/25 11:16:33;;;;;;;4.78;0.73;;;;;;;20.38;37.50;100391.25;5063763;28;20052;-77
2022/05/25 11:19:58;;;;;;;2.67;0.85;;;;;;;20.43;37.89;100399.78;5065945;28;20048;-80
2022/05/25 11:22:46;;;;;;;2.63;0.93;;;;;;;20.37;37.82;100385.00;5008144;28;20487;-74
2022/05/25 11:25:35;;;;;;;4.07;1.00;;;;;;;20.47;38.53;100402.03;5070369;28;20080;-76
2022/05/25 11:28:15;;;;;;;1.75;0.63;;;;;;;20.31;37.63;100389.06;5070001;28;20125;-71
2022/05/25 11:30:56;;;;;;;2.28;0.80;;;;;;;20.58;37.55;100396.59;5069992;28;20793;-75
2022/05/25 11:33:34;;;;;;;2.58;0.40;;;;;;;20.71;36.96;100408.94;5068585;28;20080;-75
2022/05/25 11:36:37;;;;;;;1.52;0.30;;;;;;;20.55;36.79;100391.47;5066992;28;20446;-72
2022/05/25 11:39:28;;;;;;;2.28;0.35;;;;;;;20.37;37.18;100398.47;5071894;28;20400;-76
2022/05/25 11:42:04;;;;;;;1.23;0.38;;;;;;;20.69;36.62;100397.47;5069615;28;20056;-73
2022/05/25 11:45:16;;;;;;;1.98;0.50;;;;;;;20.81;36.25;100404.44;5050263;28;21254;-74
2022/05/25 11:48:01;;;;;;;1.63;0.50;;;;;;;20.73;36.29;100402.44;5009440;28;20089;-76
2022/05/25 11:51:03;;;;;;;1.55;0.40;;;;;;;20.91;36.86;100402.63;5006057;28;20136;-76
2022/05/25 11:53:46;;;;;;;3.42;0.47;;;;;;;21.07;36.14;100407.50;4991413;28;20506;-77
2022/05/25 11:56:41;;;;;;;0.98;0.50;;;;;;;21.25;34.95;100387.81;5063185;28;20106;-75
2022/05/25 11:59:44;;;;;;;2.17;0.40;;;;;;;21.49;33.72;100395.50;5058677;28;20517;-73
2022/05/25 12:02:38;;;;;;;3.25;0.50;;;;;;;21.49;33.11;100387.41;5065063;28;20052;-76
2022/05/25 12:05:08;;;;;;;2.15;0.32;;;;;;;21.79;31.95;100374.78;5070923;28;20072;-76
2022/05/25 12:07:56;;;;;;;2.80;0.40;;;;;;;21.84;32.19;100384.13;5069114;28;20757;-76
2022/05/25 12:10:43;;;;;;;3.45;0.30;;;;;;;21.97;31.60;100395.47;5066551;28;20143;-76
2022/05/25 12:13:35;;;;;;;0.55;0.40;;;;;;;21.81;32.31;100384.41;5067842;28;20102;-77
2022/05/25 12:16:34;;;;;;;1.23;0.50;;;;;;;21.71;32.53;100378.19;5062152;28;20103;-75
2022/05/25 12:19:07;;;;;;;2.45;0.50;;;;;;;21.93;32.79;100385.94;5063039;28;20068;-75
2022/05/25 12:21:41;;;;;;;1.70;0.30;;;;;;;22.37;31.86;100376.34;5066275;28;20052;-75